createdAt,value
2023-01-03T00:01:57.478Z,123.28
2023-01-03T00:04:24.956Z,116.68
2023-01-03T00:06:53.718Z,133.50
2023-01-03T00:09:25.820Z,109.13
2023-01-03T00:12:13.061Z,100.55
2023-01-03T00:14:43.977Z,125.43
2023-01-03T00:17:12.964Z,135.07
2023-01-03T00:19:43.959Z,168.48
2023-01-03T00:22:13.994Z,130.02
2023-01-03T00:24:41.919Z,128.23
2023-01-03T00:27:09.976Z,120.50
2023-01-03T00:29:46.644Z,107.90
2023-01-03T00:32:15.447Z,110.97
2023-01-03T00:34:45.951Z,133.20
2023-01-03T00:37:15.117Z,116.78
2023-01-03T00:39:44.306Z,156.68
2023-01-03T00:42:12.620Z,124.20
2023-01-03T00:44:40.148Z,133.25
2023-01-03T00:47:07.751Z,136.32
2023-01-03T00:49:35.845Z,130.47
2023-01-03T00:52:03.321Z,132.77
2023-01-03T00:54:30.926Z,110.57
2023-01-03T00:56:58.269Z,133.60
2023-01-03T00:59:27.178Z,144.38
2023-01-03T01:01:57.163Z,106.00
2023-01-03T01:04:31.713Z,113.70
2023-01-03T01:07:05.416Z,119.93
2023-01-03T01:09:38.733Z,123.00
2023-01-03T01:12:07.664Z,130.98
2023-01-03T01:14:36.124Z,120.40
2023-01-03T01:17:07.970Z,186.55
2023-01-03T01:19:40.862Z,121.00
2023-01-03T01:22:09.643Z,123.18
2023-01-03T01:24:37.745Z,130.55
2023-01-03T01:27:05.818Z,149.95
2023-01-03T01:29:33.151Z,150.20
2023-01-03T01:32:01.924Z,121.30
2023-01-03T01:34:31.191Z,122.82
2023-01-03T01:36:58.640Z,121.03
2023-01-03T01:39:29.258Z,133.27
2023-01-03T01:42:27.388Z,130.43
2023-01-03T01:45:03.247Z,130.65
2023-01-03T01:47:55.875Z,132.68
2023-01-03T01:50:40.741Z,133.80
2023-01-03T01:53:18.031Z,126.38
2023-01-03T01:56:20.863Z,126.03
2023-01-03T01:58:54.730Z,145.10
2023-01-03T02:01:26.322Z,144.65
2023-01-03T02:04:27.229Z,133.63
2023-01-03T02:06:56.892Z,119.78
2023-01-03T02:09:24.573Z,129.38
2023-01-03T02:12:54.357Z,124.05
2023-01-03T02:15:47.684Z,144.25
2023-01-03T02:18:48.529Z,129.23
2023-01-03T02:21:54.405Z,112.75
2023-01-03T02:24:54.654Z,126.15
2023-01-03T02:28:13.911Z,120.50
2023-01-03T02:31:28.462Z,110.05
2023-01-03T02:34:45.238Z,118.43
2023-01-03T02:38:07.572Z,95.80
2023-01-03T02:40:45.055Z,94.15
2023-01-03T02:43:24.538Z,102.07
2023-01-03T02:46:32.128Z,95.60
2023-01-03T02:49:15.917Z,87.03
2023-01-03T02:51:50.133Z,110.68
2023-01-03T02:54:36.124Z,89.75
2023-01-03T02:57:11.412Z,92.88
2023-01-03T02:59:47.756Z,92.65
2023-01-03T03:02:17.878Z,106.25
2023-01-03T03:04:51.368Z,106.35
2023-01-03T03:07:31.554Z,110.30
2023-01-03T03:10:17.833Z,117.97
2023-01-03T03:13:09.068Z,132.70
2023-01-03T03:16:41.196Z,132.48
2023-01-03T03:19:51.785Z,152.75
2023-01-03T03:22:48.931Z,153.98
2023-01-03T03:25:42.430Z,134.95
2023-01-03T03:28:34.802Z,117.55
2023-01-03T03:31:26.797Z,132.15
2023-01-03T03:34:12.559Z,132.73
2023-01-03T03:37:05.395Z,108.43
2023-01-03T03:39:52.277Z,162.40
2023-01-03T03:43:21.662Z,134.38
2023-01-03T03:46:16.081Z,153.80
2023-01-03T03:49:19.907Z,135.93
2023-01-03T03:51:50.373Z,123.75
2023-01-03T03:54:23.340Z,125.25
2023-01-03T03:57:09.254Z,114.05
2023-01-03T03:59:41.728Z,126.82
2023-01-03T04:02:13.103Z,129.77
2023-01-03T04:04:47.212Z,107.35
2023-01-03T04:07:14.618Z,109.70
2023-01-03T04:09:42.408Z,106.40
2023-01-03T04:12:09.834Z,102.13
2023-01-03T04:14:37.252Z,90.88
2023-01-03T04:17:09.033Z,99.93
2023-01-03T04:19:36.371Z,99.78
2023-01-03T04:22:03.933Z,117.80
2023-01-03T04:24:31.345Z,120.90
2023-01-03T04:26:58.752Z,113.70
2023-01-03T04:29:27.271Z,99.78
2023-01-03T04:31:54.992Z,110.90
2023-01-03T04:34:22.573Z,120.15
2023-01-03T04:36:49.906Z,124.37
2023-01-03T04:39:18.276Z,125.57
2023-01-03T04:41:45.674Z,120.57
2023-01-03T04:44:13.102Z,124.65
2023-01-03T04:46:43.276Z,127.67
2023-01-03T04:49:16.427Z,106.30
2023-01-03T04:51:43.817Z,108.57
2023-01-03T04:54:11.262Z,79.13
2023-01-03T04:56:39.083Z,95.45
2023-01-03T04:59:06.785Z,111.45
2023-01-03T05:01:36.136Z,93.07
2023-01-03T05:04:05.665Z,99.00
2023-01-03T05:06:33.052Z,88.15
2023-01-03T05:09:00.528Z,81.37
2023-01-03T05:11:27.863Z,87.68
2023-01-03T05:13:55.169Z,78.65
2023-01-03T05:16:22.581Z,78.90
2023-01-03T05:18:53.730Z,77.53
2023-01-03T05:21:42.534Z,80.32
2023-01-03T05:24:31.261Z,76.00
2023-01-03T05:27:02.629Z,74.03
2023-01-03T05:29:31.731Z,70.95
2023-01-03T05:31:59.166Z,78.75
2023-01-03T05:34:26.624Z,76.30
2023-01-03T05:36:54.155Z,87.47
2023-01-03T05:39:21.659Z,76.82
2023-01-03T05:42:01.203Z,68.72
2023-01-03T05:44:32.893Z,67.47
2023-01-03T05:47:05.841Z,63.63
2023-01-03T05:49:34.468Z,63.97
2023-01-03T05:52:02.624Z,73.65
2023-01-03T05:54:31.495Z,81.20
2023-01-03T05:56:58.858Z,65.95
2023-01-03T05:59:27.817Z,79.25
2023-01-03T06:01:55.665Z,67.78
2023-01-03T06:04:24.436Z,70.10
2023-01-03T06:06:51.969Z,72.38
2023-01-03T06:09:19.542Z,64.95
2023-01-03T06:11:47.051Z,59.65
2023-01-03T06:14:14.846Z,57.42
2023-01-03T06:17:03.175Z,56.95
2023-01-03T06:19:31.660Z,58.22
2023-01-03T06:24:38.525Z,56.70
2023-01-03T06:29:34.530Z,56.17
2023-01-03T06:32:08.898Z,57.78
2023-01-03T06:34:37.725Z,52.10
2023-01-03T06:37:05.291Z,53.47
2023-01-03T06:39:33.595Z,48.47
2023-01-03T06:42:25.504Z,46.30
2023-01-03T06:45:12.407Z,46.97
2023-01-03T06:47:58.318Z,52.15
2023-01-03T06:50:44.196Z,45.08
2023-01-03T06:53:20.747Z,48.88
2023-01-03T06:55:56.166Z,51.15
2023-01-03T06:58:24.474Z,51.45
2023-01-03T07:00:53.447Z,46.25
2023-01-03T07:03:23.001Z,43.15
2023-01-03T07:05:50.884Z,42.60
2023-01-03T07:08:19.701Z,40.08
2023-01-03T07:10:50.125Z,43.67
2023-01-03T07:13:36.384Z,42.92
2023-01-03T07:16:04.130Z,42.05
2023-01-03T07:18:32.361Z,48.90
2023-01-03T07:21:00.463Z,46.78
2023-01-03T07:23:27.819Z,45.25
2023-01-03T07:25:56.024Z,47.45
2023-01-03T07:28:25.719Z,43.03
2023-01-03T07:30:53.391Z,39.63
2023-01-03T07:33:21.341Z,33.15
2023-01-03T07:35:50.238Z,39.28
2023-01-03T07:38:18.627Z,33.92
2023-01-03T07:43:34.931Z,33.58
2023-01-03T07:46:11.218Z,35.45
2023-01-03T07:48:41.281Z,31.00
2023-01-03T07:51:13.924Z,26.38
2023-01-03T07:53:41.999Z,28.58
2023-01-03T07:56:21.714Z,25.70
2023-01-03T07:58:52.092Z,18.90
2023-01-03T08:01:23.155Z,22.77
2023-01-03T08:03:52.129Z,19.33
2023-01-03T08:06:23.805Z,16.40
2023-01-03T08:09:12.422Z,15.35
2023-01-03T08:11:58.356Z,15.18
2023-01-03T08:14:28.044Z,14.98
2023-01-03T08:16:56.377Z,15.55
2023-01-03T08:21:52.910Z,14.77
2023-01-03T08:24:20.362Z,13.65
2023-01-03T08:26:51.200Z,15.18
2023-01-03T08:29:18.677Z,14.90
2023-01-03T08:32:02.943Z,14.23
2023-01-03T08:34:38.151Z,13.07
2023-01-03T08:37:11.138Z,12.98
2023-01-03T08:39:47.710Z,12.80
2023-01-03T08:42:20.807Z,12.70
2023-01-03T08:44:54.230Z,16.88
2023-01-03T08:47:22.125Z,15.20
2023-01-03T08:49:49.712Z,17.05
2023-01-03T08:52:18.199Z,13.93
2023-01-03T08:54:45.857Z,14.18
2023-01-03T08:57:13.257Z,11.25
2023-01-03T08:59:42.051Z,14.23
2023-01-03T09:02:09.607Z,12.10
2023-01-03T09:04:38.587Z,14.57
2023-01-03T09:07:07.829Z,18.50
2023-01-03T09:09:36.486Z,18.08
2023-01-03T09:14:31.808Z,23.27
2023-01-03T09:16:59.945Z,16.60
2023-01-03T09:19:29.857Z,14.68
2023-01-03T09:21:57.323Z,12.63
2023-01-03T09:24:24.780Z,12.10
2023-01-03T09:26:54.785Z,12.73
2023-01-03T09:29:23.128Z,11.65
2023-01-03T09:31:51.455Z,12.60
2023-01-03T09:34:19.536Z,13.13
2023-01-03T09:36:47.117Z,16.77
2023-01-03T09:39:15.881Z,12.43
2023-01-03T09:41:44.470Z,13.00
2023-01-03T09:46:39.875Z,11.73
2023-01-03T09:49:11.220Z,14.43
2023-01-03T09:52:05.129Z,13.27
2023-01-03T09:54:58.274Z,12.88
2023-01-03T09:57:54.171Z,14.93
2023-01-03T10:01:05.570Z,14.18
2023-01-03T10:03:52.649Z,14.75
2023-01-03T10:07:13.123Z,14.82
2023-01-03T10:13:03.488Z,13.40
2023-01-03T10:15:58.977Z,13.38
2023-01-03T10:18:32.565Z,14.82
2023-01-03T10:21:19.318Z,13.68
2023-01-03T10:23:49.223Z,13.05
2023-01-03T10:26:16.869Z,14.00
2023-01-03T10:28:47.973Z,11.40
2023-01-03T10:31:54.655Z,19.02
2023-01-03T10:34:22.091Z,20.83
2023-01-03T10:36:49.522Z,21.90
2023-01-03T10:39:31.354Z,19.67
2023-01-03T10:42:00.756Z,21.33
2023-01-03T10:44:32.130Z,14.75
2023-01-03T10:47:15.226Z,15.77
2023-01-03T10:49:47.031Z,12.30
2023-01-03T10:52:24.083Z,13.93
2023-01-03T10:55:06.620Z,11.48
2023-01-03T10:57:59.542Z,15.70
2023-01-03T11:00:37.292Z,15.13
2023-01-03T11:03:26.692Z,14.00
2023-01-03T11:05:59.956Z,12.48
2023-01-03T11:08:44.690Z,13.27
2023-01-03T11:11:41.566Z,15.18
2023-01-03T11:14:17.531Z,10.80
2023-01-03T11:16:44.967Z,12.75
2023-01-03T11:19:19.690Z,13.82
2023-01-03T11:22:13.910Z,12.43
2023-01-03T11:25:20.697Z,13.80
2023-01-03T11:28:45.903Z,12.77
2023-01-03T11:31:54.800Z,12.93
2023-01-03T11:35:20.163Z,14.65
2023-01-03T11:38:04.793Z,14.70
2023-01-03T11:41:18.712Z,13.77
2023-01-03T11:44:13.805Z,12.32
2023-01-03T11:47:24.479Z,14.20
2023-01-03T11:50:19.901Z,12.93
2023-01-03T11:53:20.270Z,13.15
2023-01-03T11:56:07.180Z,16.30
2023-01-03T11:59:04.459Z,14.45
2023-01-03T12:02:07.503Z,14.05
2023-01-03T12:05:36.082Z,15.10
2023-01-03T12:08:54.701Z,13.75
2023-01-03T12:12:04.519Z,11.75
2023-01-03T12:14:50.726Z,10.85
2023-01-03T12:18:36.202Z,14.55
2023-01-03T12:22:22.768Z,11.65
2023-01-03T12:25:23.985Z,14.27
2023-01-03T12:28:11.768Z,13.15
2023-01-03T12:30:48.647Z,9.27
2023-01-03T12:33:43.391Z,13.68
2023-01-03T12:36:43.390Z,12.30
2023-01-03T12:39:30.916Z,11.82
2023-01-03T12:42:17.730Z,9.68
2023-01-03T12:44:49.779Z,10.30
2023-01-03T12:48:33.733Z,13.57
2023-01-03T12:51:01.398Z,13.63
2023-01-03T12:54:17.832Z,12.38
2023-01-03T12:57:42.697Z,13.68
2023-01-03T13:00:52.846Z,12.93
2023-01-03T13:03:37.987Z,14.23
2023-01-03T13:06:19.049Z,11.93
2023-01-03T13:09:18.397Z,12.32
2023-01-03T13:11:54.996Z,18.02
2023-01-03T13:14:29.016Z,13.68
2023-01-03T13:17:19.339Z,11.43
2023-01-03T13:20:14.582Z,12.45
2023-01-03T13:23:23.697Z,13.80
2023-01-03T13:26:19.439Z,14.32
2023-01-03T13:28:46.885Z,12.60
2023-01-03T13:31:19.902Z,14.48
2023-01-03T13:33:56.045Z,14.75
2023-01-03T13:36:25.596Z,17.73
2023-01-03T13:38:53.268Z,14.55
2023-01-03T13:41:40.332Z,13.18
2023-01-03T13:44:21.729Z,13.23
2023-01-03T13:46:51.781Z,13.82
2023-01-03T13:49:26.984Z,13.60
2023-01-03T13:51:59.589Z,11.63
2023-01-03T13:54:37.213Z,13.95
2023-01-03T13:57:36.842Z,13.13
2023-01-03T14:00:19.398Z,16.10
2023-01-03T14:03:30.812Z,15.98
2023-01-03T14:06:30.456Z,14.15
2023-01-03T14:09:49.000Z,13.00
2023-01-03T14:13:16.821Z,11.73
2023-01-03T14:15:46.338Z,14.70
2023-01-03T14:18:30.350Z,15.50
2023-01-03T14:20:59.724Z,13.65
2023-01-03T14:26:19.733Z,16.13
2023-01-03T14:28:52.859Z,14.65
2023-01-03T14:31:29.595Z,12.35
2023-01-03T14:34:01.021Z,13.75
2023-01-03T14:36:29.488Z,16.92
2023-01-03T14:41:35.204Z,13.40
2023-01-03T14:44:07.444Z,13.45
2023-01-03T14:46:37.096Z,13.48
2023-01-03T14:49:20.507Z,17.60
2023-01-03T14:51:48.667Z,17.33
2023-01-03T14:54:20.558Z,19.10
2023-01-03T14:56:50.989Z,18.63
2023-01-03T14:59:22.068Z,13.05
2023-01-03T15:01:49.970Z,15.52
2023-01-03T15:04:18.249Z,17.08
2023-01-03T15:07:11.261Z,14.52
2023-01-03T15:09:40.354Z,15.27
2023-01-03T15:12:08.293Z,11.60
2023-01-03T15:14:40.644Z,17.13
2023-01-03T15:17:11.065Z,15.57
2023-01-03T15:19:55.538Z,14.68
2023-01-03T15:22:39.924Z,13.95
2023-01-03T15:25:23.143Z,14.55
2023-01-03T15:27:51.047Z,18.27
2023-01-03T15:30:26.509Z,11.63
2023-01-03T15:33:03.361Z,16.02
2023-01-03T15:35:37.949Z,13.57
2023-01-03T15:38:40.674Z,11.77
2023-01-03T15:42:12.335Z,16.13
2023-01-03T15:44:41.192Z,15.63
2023-01-03T15:47:09.623Z,18.40
2023-01-03T15:52:16.677Z,15.25
2023-01-03T15:54:45.664Z,13.38
2023-01-03T15:57:22.740Z,13.98
2023-01-03T15:59:57.070Z,17.52
2023-01-03T16:02:26.036Z,16.67
2023-01-03T16:04:54.496Z,15.60
2023-01-03T16:07:22.494Z,14.60
2023-01-03T16:09:50.104Z,15.63
2023-01-03T16:12:32.531Z,16.90
2023-01-03T16:15:00.755Z,15.25
2023-01-03T16:17:30.138Z,15.38
2023-01-03T16:20:00.481Z,18.85
2023-01-03T16:22:35.335Z,14.02
2023-01-03T16:25:08.959Z,15.05
2023-01-03T16:27:40.112Z,14.90
2023-01-03T16:30:10.479Z,18.08
2023-01-03T16:32:38.244Z,16.17
2023-01-03T16:35:18.074Z,19.80
2023-01-03T16:37:45.867Z,15.18
2023-01-03T16:40:18.135Z,17.38
2023-01-03T16:42:45.601Z,17.13
2023-01-03T16:45:13.208Z,14.80
2023-01-03T16:47:44.830Z,15.43
2023-01-03T16:50:18.446Z,14.88
2023-01-03T16:52:53.812Z,17.55
2023-01-03T16:55:30.027Z,13.18
2023-01-03T16:57:58.580Z,15.38
2023-01-03T17:03:02.004Z,18.23
2023-01-03T17:05:36.172Z,14.45
2023-01-03T17:08:23.525Z,18.92
2023-01-03T17:10:57.754Z,16.83
2023-01-03T17:13:37.644Z,18.33
2023-01-03T17:16:20.680Z,17.48
2023-01-03T17:18:51.536Z,20.98
2023-01-03T17:21:34.267Z,20.95
2023-01-03T17:24:07.256Z,15.55
2023-01-03T17:26:36.562Z,15.05
2023-01-03T17:29:08.221Z,16.35
2023-01-03T17:31:42.039Z,18.42
2023-01-03T17:34:44.036Z,19.83
2023-01-03T17:37:20.130Z,18.52
2023-01-03T17:40:00.227Z,17.30
2023-01-03T17:42:29.243Z,16.67
2023-01-03T17:45:15.495Z,19.08
2023-01-03T17:48:02.745Z,15.88
2023-01-03T17:50:34.845Z,20.20
2023-01-03T17:53:15.116Z,19.50
2023-01-03T17:55:46.669Z,16.13
2023-01-03T17:58:33.073Z,17.98
2023-01-03T18:01:00.718Z,20.30
2023-01-03T18:03:28.371Z,17.67
2023-01-03T18:05:56.458Z,16.88
2023-01-03T18:08:25.542Z,15.40
2023-01-03T18:10:53.713Z,20.95
2023-01-03T18:13:37.680Z,17.67
2023-01-03T18:16:05.484Z,22.50
2023-01-03T18:18:33.122Z,19.48
2023-01-03T18:21:00.715Z,19.80
2023-01-03T18:23:36.242Z,18.77
2023-01-03T18:26:07.680Z,17.70
2023-01-03T18:28:35.326Z,19.52
2023-01-03T18:31:03.679Z,19.93
2023-01-03T18:33:31.244Z,17.60
2023-01-03T18:36:00.484Z,20.02
2023-01-03T18:38:31.785Z,20.60
2023-01-03T18:41:05.006Z,18.40
2023-01-03T18:43:33.745Z,20.35
2023-01-03T18:46:01.766Z,18.85
2023-01-03T18:48:29.231Z,15.68
2023-01-03T18:50:59.295Z,17.90
2023-01-03T18:53:32.229Z,20.27
2023-01-03T18:56:00.830Z,20.08
2023-01-03T18:58:37.788Z,20.92
2023-01-03T19:01:07.660Z,21.67
2023-01-03T19:03:51.789Z,18.70
2023-01-03T19:06:40.255Z,24.38
2023-01-03T19:09:21.119Z,18.40
2023-01-03T19:11:53.461Z,18.83
2023-01-03T19:14:21.311Z,17.42
2023-01-03T19:16:49.482Z,21.38
2023-01-03T19:19:17.285Z,18.60
2023-01-03T19:21:57.269Z,21.02
2023-01-03T19:24:38.900Z,19.58
2023-01-03T19:27:23.771Z,21.73
2023-01-03T19:29:53.198Z,17.38
2023-01-03T19:32:28.443Z,21.70
2023-01-03T19:34:59.386Z,18.70
2023-01-03T19:37:26.860Z,17.40
2023-01-03T19:39:54.402Z,18.48
2023-01-03T19:42:42.237Z,21.53
2023-01-03T19:45:44.089Z,18.58
2023-01-03T19:48:21.738Z,17.80
2023-01-03T19:50:53.100Z,17.95
2023-01-03T19:53:20.544Z,20.23
2023-01-03T19:55:52.292Z,21.10
2023-01-03T19:58:34.138Z,21.83
2023-01-03T20:01:02.599Z,18.95
2023-01-03T20:03:42.843Z,25.42
2023-01-03T20:06:13.891Z,22.05
2023-01-03T20:08:43.815Z,22.85
2023-01-03T20:11:21.930Z,24.38
2023-01-03T20:13:49.890Z,20.35
2023-01-03T20:16:18.334Z,19.88
2023-01-03T20:18:47.824Z,22.58
2023-01-03T20:21:26.355Z,23.42
2023-01-03T20:24:02.368Z,21.67
2023-01-03T20:26:33.697Z,22.65
2023-01-03T20:29:02.456Z,22.23
2023-01-03T20:31:32.006Z,23.30
2023-01-03T20:34:01.147Z,23.38
2023-01-03T20:36:40.490Z,26.25
2023-01-03T20:39:34.757Z,24.60
2023-01-03T20:42:16.290Z,23.60
2023-01-03T20:44:43.705Z,26.63
2023-01-03T20:47:15.032Z,30.80
2023-01-03T20:49:44.054Z,29.75
2023-01-03T20:52:18.903Z,31.33
2023-01-03T20:54:46.558Z,27.95
2023-01-03T20:57:21.337Z,23.97
2023-01-03T20:59:50.064Z,28.33
2023-01-03T21:02:18.165Z,27.15
2023-01-03T21:04:45.640Z,25.00
2023-01-03T21:08:04.616Z,30.60
2023-01-03T21:10:41.681Z,26.30
2023-01-03T21:13:10.901Z,28.20
2023-01-03T21:15:38.832Z,28.08
2023-01-03T21:18:07.192Z,27.40
2023-01-03T21:20:34.873Z,27.77
2023-01-03T21:23:02.368Z,30.03
2023-01-03T21:25:36.170Z,30.00
2023-01-03T21:28:04.150Z,31.10
2023-01-03T21:30:32.634Z,34.38
2023-01-03T21:33:00.321Z,29.42
2023-01-03T21:35:27.961Z,30.20
2023-01-03T21:37:55.784Z,35.43
2023-01-03T21:40:30.256Z,29.45
2023-01-03T21:43:05.792Z,27.75
2023-01-03T21:45:46.245Z,32.83
2023-01-03T21:48:18.735Z,29.08
2023-01-03T21:50:50.021Z,30.23
2023-01-03T21:53:22.803Z,29.75
2023-01-03T21:55:51.223Z,32.03
2023-01-03T22:00:48.793Z,29.55
2023-01-03T22:03:36.509Z,36.05
2023-01-03T22:06:26.129Z,37.10
2023-01-03T22:08:55.121Z,36.65
2023-01-03T22:11:22.869Z,33.33
2023-01-03T22:13:58.478Z,36.28
2023-01-03T22:16:26.858Z,39.50
2023-01-03T22:21:21.771Z,42.42
2023-01-03T22:23:49.092Z,32.35
2023-01-03T22:26:17.780Z,34.25
2023-01-03T22:28:47.201Z,35.50
2023-01-03T22:31:20.001Z,37.83
2023-01-03T22:33:50.481Z,41.70
2023-01-03T22:36:18.022Z,38.25
2023-01-03T22:38:52.154Z,39.00
2023-01-03T22:41:19.522Z,45.10
2023-01-03T22:43:47.439Z,35.60
2023-01-03T22:46:17.864Z,43.95
2023-01-03T22:48:45.522Z,42.30
2023-01-03T22:51:15.717Z,43.72
2023-01-03T22:53:46.156Z,46.47
2023-01-03T22:56:16.638Z,50.35
2023-01-03T22:58:46.106Z,49.25
2023-01-03T23:01:20.616Z,41.78
2023-01-03T23:03:55.625Z,41.70
2023-01-03T23:06:22.988Z,42.50
2023-01-03T23:08:51.420Z,43.92
2023-01-03T23:11:41.679Z,47.63
2023-01-03T23:14:18.898Z,41.83
2023-01-03T23:16:48.781Z,41.15
2023-01-03T23:19:23.365Z,42.92
2023-01-03T23:21:52.366Z,36.70
2023-01-03T23:24:24.564Z,43.38
2023-01-03T23:26:53.110Z,40.17
2023-01-03T23:29:22.412Z,40.70
2023-01-03T23:31:52.796Z,42.55
2023-01-03T23:34:21.356Z,40.72
2023-01-03T23:36:49.252Z,41.40
2023-01-03T23:39:19.233Z,42.00
2023-01-03T23:41:47.398Z,43.75
2023-01-03T23:44:16.356Z,48.35
2023-01-03T23:46:43.972Z,45.08
2023-01-03T23:49:13.458Z,45.72
2023-01-03T23:51:41.012Z,48.75
2023-01-03T23:54:14.573Z,45.83
2023-01-03T23:56:42.013Z,40.33
2023-01-03T23:59:09.585Z,45.07
